Date,TemperatureHighF,TemperatureAvgF,TemperatureLowF,DewpointHighF,DewpointAvgF,DewpointLowF,HumidityHigh,HumidityAvg,HumidityLow,PressureMaxIn,PressureMinIn,WindSpeedMaxMPH,WindSpeedAvgMPH,GustSpeedMaxMPH,PrecipitationSumIn
2013-1-1,24,17,6,-100,-100,-100,0,0,100,0.00,40.00,0,-999,0,0.00
2013-1-2,18,17,17,-100,-100,-100,0,0,100,0.00,40.00,0,-999,0,0.00
2013-1-3,20,20,20,-100,-100,-100,0,0,100,0.00,40.00,0,-999,0,0.00
2013-1-4,20,20,20,-100,-100,-100,0,0,100,0.00,40.00,0,-999,0,0.00
2013-1-5,36,30,22,-100,-100,-100,0,0,100,0.00,40.00,0,-999,0,0.00
2013-1-6,36,25,13,-100,-100,-100,0,0,100,0.00,40.00,0,-999,0,0.00
2013-1-7,43,33,22,-100,-100,-100,0,0,100,0.00,40.00,0,-999,0,0.00
2013-1-8,42,28,18,-100,-100,-100,0,0,100,0.00,40.00,0,-999,0,0.00
2013-1-9,51,34,21,-100,-100,-100,0,0,100,0.00,40.00,0,-999,0,0.00
2013-1-10,40,39,36,-100,-100,-100,0,0,100,0.00,40.00,0,-999,0,0.00
2013-1-11,47,40,29,-100,-100,-100,0,0,100,0.00,40.00,0,-999,0,0.00
2013-1-12,29,21,14,-100,-100,-100,0,0,100,0.00,40.00,0,-999,0,0.00
2013-1-13,23,16,10,-100,-100,-100,0,0,100,0.00,40.00,0,-999,0,0.00
2013-1-14,36,21,10,-100,-100,-100,0,0,100,0.00,40.00,0,-999,0,0.00
2013-1-15,37,26,18,-100,-100,-100,0,0,100,0.00,40.00,0,-999,0,0.00
2013-1-16,54,38,23,-100,-100,-100,0,0,100,0.00,40.00,0,-999,0,0.00
2013-1-17,36,33,30,-100,-100,-100,0,0,100,0.00,40.00,0,-999,0,0.00
2013-1-18,51,41,33,-100,-100,-100,0,0,100,0.00,40.00,0,-999,0,0.00
2013-1-19,53,42,27,-100,-100,-100,0,0,100,0.00,40.00,0,-999,0,0.00
2013-1-20,29,20,16,-100,-100,-100,0,0,100,0.00,40.00,0,-999,0,0.00
2013-1-21,18,14,9,-100,-100,-100,0,0,100,0.00,40.00,0,-999,0,0.00
2013-1-22,23,17,13,-100,-100,-100,0,0,100,0.00,40.00,0,-999,0,0.00
2013-1-23,32,22,14,-100,-100,-100,0,0,100,0.00,40.00,0,-999,0,0.00
2013-1-24,22,13,5,-100,-100,-100,0,0,100,0.00,40.00,0,-999,0,0.00
2013-1-25,51,33,19,-100,-100,-100,0,0,100,0.00,40.00,0,-999,0,0.00
2013-1-26,56,37,21,-100,-100,-100,0,0,100,0.00,40.00,0,-999,0,0.00
2013-1-27,48,41,38,-100,-100,-100,0,0,100,0.00,40.00,0,-999,0,0.00
2013-1-28,47,40,36,-100,-100,-100,0,0,100,0.00,40.00,0,-999,0,0.00
2013-1-29,40,36,34,-100,-100,-100,0,0,100,0.00,40.00,0,-999,0,0.00
2013-1-30,34,26,20,-100,-100,-100,0,0,100,0.00,40.00,0,-999,0,0.00
2013-1-31,12,9,4,-100,-100,-100,0,0,100,0.00,40.00,0,-999,0,0.00
2013-2-1,32,18,3,-100,-100,-100,0,0,100,0.00,40.00,0,-999,0,0.00
2013-2-2,39,32,28,-100,-100,-100,0,0,100,0.00,40.00,0,-999,0,0.00
2013-2-3,46,38,24,-100,-100,-100,0,0,100,0.00,40.00,0,-999,0,0.00
2013-2-4,40,30,25,-100,-100,-100,0,0,100,0.00,40.00,0,-999,0,0.00
2013-2-5,52,39,29,-100,-100,-100,0,0,100,0.00,40.00,0,-999,0,0.00
2013-2-6,40,38,35,-100,-100,-100,0,0,100,0.00,40.00,0,-999,0,0.00
2013-2-7,45,35,32,-100,-100,-100,0,0,100,0.00,40.00,0,-999,0,0.00
2013-2-8,35,31,28,-100,-100,-100,0,0,100,0.00,40.00,0,-999,0,0.00
2013-2-9,51,38,29,-100,-100,-100,0,0,100,0.00,40.00,0,-999,0,0.00
2013-2-10,46,38,32,-100,-100,-100,0,0,100,0.00,40.00,0,-999,0,0.00
2013-2-11,36,32,26,-100,-100,-100,0,0,100,0.00,40.00,0,-999,0,0.00
2013-2-12,52,34,25,-100,-100,-100,0,0,100,0.00,40.00,0,-999,0,0.00
2013-2-13,58,41,29,-100,-100,-100,0,0,100,0.00,40.00,0,-999,0,0.00
2013-2-14,45,38,23,-100,-100,-100,0,0,100,0.00,40.00,0,-999,0,0.00
2013-2-15,35,24,16,-100,-100,-100,0,0,100,0.00,40.00,0,-999,0,0.00
2013-2-16,42,27,16,-100,-100,-100,0,0,100,0.00,40.00,0,-999,0,0.00
2013-2-17,54,39,27,-100,-100,-100,0,0,100,0.00,40.00,0,-999,0,0.00
2013-2-18,45,34,23,-100,-100,-100,0,0,100,0.00,40.00,0,-999,0,0.00
2013-2-19,27,19,10,-100,-100,-100,0,0,100,0.00,40.00,0,-999,0,0.00
2013-2-20,26,17,7,-100,-100,-100,0,0,100,0.00,40.00,0,-999,0,0.00
2013-2-21,25,23,21,-100,-100,-100,0,0,100,0.00,40.00,0,-999,0,0.00
2013-2-22,27,20,10,-100,-100,-100,0,0,100,0.00,40.00,0,-999,0,0.00
2013-2-23,40,21,3,-100,-100,-100,0,0,100,0.00,40.00,0,-999,0,0.00
2013-2-24,39,31,23,-100,-100,-100,0,0,100,0.00,40.00,0,-999,0,0.00
2013-2-25,35,29,25,-100,-100,-100,0,0,100,0.00,40.00,0,-999,0,0.00
2013-2-26,32,26,25,-100,-100,-100,0,0,100,0.00,40.00,0,-999,0,0.00
2013-2-27,36,30,25,-100,-100,-100,0,0,100,0.00,40.00,0,-999,0,0.00
2013-2-28,33,30,28,-100,-100,-100,0,0,100,0.00,40.00,0,-999,0,0.00
2013-3-1,32,28,23,-100,-100,-100,0,0,100,0.00,40.00,0,-999,0,0.00
2013-3-2,38,28,17,-100,-100,-100,0,0,100,0.00,40.00,0,-999,0,0.00
2013-3-3,41,36,29,-100,-100,-100,0,0,100,0.00,40.00,0,-999,0,0.00
2013-3-4,40,36,31,-100,-100,-100,0,0,100,0.00,40.00,0,-999,0,0.00
2013-3-5,32,29,25,-100,-100,-100,0,0,100,0.00,40.00,0,-999,0,0.00
2013-3-6,39,30,22,-100,-100,-100,0,0,100,0.00,40.00,0,-999,0,0.00
2013-3-7,52,38,28,-100,-100,-100,0,0,100,0.00,40.00,0,-999,0,0.00
2013-3-8,55,41,29,-100,-100,-100,0,0,100,0.00,40.00,0,-999,0,0.00
2013-3-9,58,46,37,-100,-100,-100,0,0,100,0.00,40.00,0,-999,0,0.00
2013-3-10,36,30,25,-100,-100,-100,0,0,100,0.00,40.00,0,-999,0,0.00
2013-3-11,36,27,21,-100,-100,-100,0,0,100,0.00,40.00,0,-999,0,0.00
2013-3-12,38,30,24,-100,-100,-100,0,0,100,0.00,40.00,0,-999,0,0.00
2013-3-13,35,27,18,-100,-100,-100,0,0,100,0.00,40.00,0,-999,0,0.00
2013-3-14,58,43,35,-100,-100,-100,0,0,100,0.00,40.00,0,-999,0,0.00
2013-3-15,58,47,39,-100,-100,-100,0,0,100,0.00,40.00,0,-999,0,0.00
2013-3-16,43,33,27,-100,-100,-100,0,0,100,0.00,40.00,0,-999,0,0.00
2013-3-17,47,35,26,-100,-100,-100,0,0,100,0.00,40.00,0,-999,0,0.00
2013-3-18,42,36,32,-100,-100,-100,0,0,100,0.00,40.00,0,-999,0,0.00
2013-3-19,51,37,24,-100,-100,-100,0,0,100,0.00,40.00,0,-999,0,0.00
2013-3-20,37,27,18,-100,-100,-100,0,0,100,0.00,40.00,0,-999,0,0.00
2013-3-21,34,28,23,-100,-100,-100,0,0,100,0.00,40.00,0,-999,0,0.00
2013-3-22,36,32,26,-100,-100,-100,0,0,100,0.00,40.00,0,-999,0,0.00
2013-3-23,36,33,32,-100,-100,-100,0,0,100,0.00,40.00,0,-999,0,0.00
2013-3-24,34,28,25,-100,-100,-100,0,0,100,0.00,40.00,0,-999,0,0.00
2013-3-25,31,28,25,-100,-100,-100,0,0,100,0.00,40.00,0,-999,0,0.00
2013-3-26,43,30,20,-100,-100,-100,0,0,100,0.00,40.00,0,-999,0,0.00
2013-3-27,52,39,29,-100,-100,-100,0,0,100,0.00,40.00,0,-999,0,0.00
2013-3-28,58,44,32,-100,-100,-100,0,0,100,0.00,40.00,0,-999,0,0.00
2013-3-29,69,52,38,-100,-100,-100,0,0,100,0.00,40.00,0,-999,0,0.00
2013-3-30,70,57,51,-100,-100,-100,0,0,100,0.00,40.00,0,-999,0,0.00
2013-3-31,58,49,38,-100,-100,-100,0,0,100,0.00,40.00,0,-999,0,0.00
2013-4-1,47,34,23,-100,-100,-100,0,0,100,0.00,40.00,0,-999,0,0.00
2013-4-2,58,42,26,-100,-100,-100,0,0,100,0.00,40.00,0,-999,0,0.00
2013-4-3,61,45,33,-100,-100,-100,0,0,100,0.00,40.00,0,-999,0,0.00
2013-4-4,62,48,35,-100,-100,-100,0,0,100,0.00,40.00,0,-999,0,0.00
2013-4-5,65,52,36,-100,-100,-100,0,0,100,0.00,40.00,0,-999,0,0.00
2013-4-6,73,60,52,-100,-100,-100,0,0,100,0.00,40.00,0,-999,0,0.00
2013-4-7,72,56,43,-100,-100,-100,0,0,100,0.00,40.00,0,-999,0,0.00
2013-4-8,69,59,45,-100,-100,-100,0,0,100,0.00,40.00,0,-999,0,0.00
2013-4-9,62,47,33,-100,-100,-100,0,0,100,0.00,40.00,0,-999,0,0.00
2013-4-10,36,36,34,-100,-100,-100,0,0,100,0.00,40.00,0,-999,0,0.00
2013-4-11,36,34,32,-100,-100,-100,0,0,100,0.00,40.00,0,-999,0,0.00
2013-4-12,47,35,32,-100,-100,-100,0,0,100,0.00,40.00,0,-999,0,0.00
2013-4-13,54,43,32,-100,-100,-100,0,0,100,0.00,40.00,0,-999,0,0.00
2013-4-14,65,51,43,-100,-100,-100,0,0,100,0.00,40.00,0,-999,0,0.00
2013-4-15,50,40,36,-100,-100,-100,0,0,100,0.00,40.00,0,-999,0,0.00
2013-4-16,53,43,36,-100,-100,-100,0,0,100,0.00,40.00,0,-999,0,0.00
2013-4-17,47,42,38,-100,-100,-100,0,0,100,0.00,40.00,0,-999,0,0.00
2013-4-18,43,34,29,-100,-100,-100,0,0,100,0.00,40.00,0,-999,0,0.00
2013-4-19,46,37,30,-100,-100,-100,0,0,100,0.00,40.00,0,-999,0,0.00
2013-4-20,47,37,29,-100,-100,-100,0,0,100,0.00,40.00,0,-999,0,0.00
2013-4-21,67,53,43,-100,-100,-100,0,0,100,0.00,40.00,0,-999,0,0.00
2013-4-22,54,42,36,-100,-100,-100,0,0,100,0.00,40.00,0,-999,0,0.00
2013-4-23,39,33,31,-100,-100,-100,0,0,100,0.00,40.00,0,-999,0,0.00
2013-4-24,57,42,29,-100,-100,-100,0,0,100,0.00,40.00,0,-999,0,0.00
2013-4-25,71,52,32,-100,-100,-100,0,0,100,0.00,40.00,0,-999,0,0.00
2013-4-26,75,62,50,-100,-100,-100,0,0,100,0.00,40.00,0,-999,0,0.00
2013-4-27,75,58,44,-100,-100,-100,0,0,100,0.00,40.00,0,-999,0,0.00
2013-4-28,83,65,47,-100,-100,-100,0,0,100,0.00,40.00,0,-999,0,0.00
2013-4-29,84,65,56,-100,-100,-100,0,0,100,0.00,40.00,0,-999,0,0.00
2013-4-30,76,70,62,-100,-100,-100,0,0,100,0.00,40.00,0,-999,0,0.00
2013-5-1,69,42,34,-100,-100,-100,0,0,100,0.00,40.00,0,-999,0,0.00
2013-5-2,53,43,35,-100,-100,-100,0,0,100,0.00,40.00,0,-999,0,0.00
2013-5-3,51,43,32,-100,-100,-100,0,0,100,0.00,40.00,0,-999,0,0.00
2013-5-4,47,41,37,-100,-100,-100,0,0,100,0.00,40.00,0,-999,0,0.00
2013-5-5,57,49,43,-100,-100,-100,0,0,100,0.00,40.00,0,-999,0,0.00
2013-5-6,73,56,42,-100,-100,-100,0,0,100,0.00,40.00,0,-999,0,0.00
2013-5-7,77,62,49,-100,-100,-100,0,0,100,0.00,40.00,0,-999,0,0.00
2013-5-8,65,63,59,-100,-100,-100,0,0,100,0.00,40.00,0,-999,0,0.00
2013-5-9,69,60,55,-100,-100,-100,0,0,100,0.00,40.00,0,-999,0,0.00
2013-5-10,70,59,50,-100,-100,-100,0,0,100,0.00,40.00,0,-999,0,0.00
2013-5-11,68,56,46,-100,-100,-100,0,0,100,0.00,40.00,0,-999,0,0.00
2013-5-12,70,56,37,-100,-100,-100,0,0,100,0.00,40.00,0,-999,0,0.00
2013-5-13,87,69,52,-100,-100,-100,0,0,100,0.00,40.00,0,-999,0,0.00
2013-5-14,104,82,67,-100,-100,-100,0,0,100,0.00,40.00,0,-999,0,0.00
2013-5-15,89,74,62,-100,-100,-100,0,0,100,0.00,40.00,0,-999,0,0.00
2013-5-16,86,73,62,-100,-100,-100,0,0,100,0.00,40.00,0,-999,0,0.00
2013-5-17,94,77,66,-100,-100,-100,0,0,100,0.00,40.00,0,-999,0,0.00
2013-5-18,84,75,67,-100,-100,-100,0,0,100,0.00,40.00,0,-999,0,0.00
2013-5-19,80,68,61,-100,-100,-100,0,0,100,0.00,40.00,0,-999,0,0.00
2013-5-20,76,66,58,-100,-100,-100,0,0,100,0.00,40.00,0,-999,0,0.00
2013-5-21,68,60,56,-100,-100,-100,0,0,100,0.00,40.00,0,-999,0,0.00
2013-5-22,61,56,52,-100,-100,-100,0,0,100,0.00,40.00,0,-999,0,0.00
2013-5-23,72,62,53,-100,-100,-100,0,0,100,0.00,40.00,0,-999,0,0.00
2013-5-24,76,65,55,-100,-100,-100,0,0,100,0.00,40.00,0,-999,0,0.00
2013-5-25,82,69,58,-100,-100,-100,0,0,100,0.00,40.00,0,-999,0,0.00
2013-5-26,78,68,62,-100,-100,-100,0,0,100,0.00,40.00,0,-999,0,0.00
2013-5-27,76,70,62,-100,-100,-100,0,0,100,0.00,40.00,0,-999,0,0.00
2013-5-28,80,72,62,-100,-100,-100,0,0,100,0.00,40.00,0,-999,0,0.00
2013-5-29,78,73,68,-100,-100,-100,0,0,100,0.00,40.00,0,-999,0,0.00
2013-5-30,78,69,62,-100,-100,-100,0,0,100,0.00,40.00,0,-999,0,0.00
2013-5-31,80,69,59,-100,-100,-100,0,0,100,0.00,40.00,0,-999,0,0.00
2013-6-1,65,61,55,-100,-100,-100,0,0,100,0.00,40.00,0,-999,0,0.00
2013-6-2,71,61,51,-100,-100,-100,0,0,100,0.00,40.00,0,-999,0,0.00
2013-6-3,80,67,55,-100,-100,-100,0,0,100,0.00,40.00,0,-999,0,0.00
2013-6-4,76,68,61,-100,-100,-100,0,0,100,0.00,40.00,0,-999,0,0.00
2013-6-5,77,66,58,-100,-100,-100,0,0,100,0.00,40.00,0,-999,0,0.00
2013-6-6,73,65,58,-100,-100,-100,0,0,100,0.00,40.00,0,-999,0,0.00
2013-6-7,81,63,51,-100,-100,-100,0,0,100,0.00,40.00,0,-999,0,0.00
2013-6-8,66,64,61,-100,-100,-100,0,0,100,0.00,40.00,0,-999,0,0.00
2013-6-9,70,65,62,-100,-100,-100,0,0,100,0.00,40.00,0,-999,0,0.00
2013-6-10,81,69,57,-100,-100,-100,0,0,100,0.00,40.00,0,-999,0,0.00
2013-6-11,87,77,69,-100,-100,-100,0,0,100,0.00,40.00,0,-999,0,0.00
2013-6-12,87,79,66,-100,-100,-100,0,0,100,0.00,40.00,0,-999,0,0.00
2013-6-13,83,69,58,-100,-100,-100,0,0,100,0.00,40.00,0,-999,0,0.00
2013-6-14,91,75,66,-100,-100,-100,0,0,100,0.00,40.00,0,-999,0,0.00
2013-6-15,87,76,68,-100,-100,-100,0,0,100,0.00,40.00,0,-999,0,0.00
2013-6-16,87,76,67,-100,-100,-100,0,0,100,0.00,40.00,0,-999,0,0.00
2013-6-17,90,77,65,-100,-100,-100,0,0,100,0.00,40.00,0,-999,0,0.00
2013-6-18,83,74,67,-100,-100,-100,0,0,100,0.00,40.00,0,-999,0,0.00
2013-6-19,87,78,66,-100,-100,-100,0,0,100,0.00,40.00,0,-999,0,0.00
2013-6-20,87,78,72,-100,-100,-100,0,0,100,0.00,40.00,0,-999,0,0.00
2013-6-22,90,84,68,-100,-100,-100,0,0,100,0.00,40.00,0,-999,0,0.00
2013-6-23,82,74,65,-100,-100,-100,0,0,100,0.00,40.00,0,-999,0,0.00
2013-6-24,83,78,70,-100,-100,-100,0,0,100,0.00,40.00,0,-999,0,0.00
2013-6-25,86,80,73,-100,-100,-100,0,0,100,0.00,40.00,0,-999,0,0.00
2013-6-26,81,78,76,-100,-100,-100,0,0,100,0.00,40.00,0,-999,0,0.00
2013-6-27,91,76,71,-100,-100,-100,0,0,100,0.00,40.00,0,-999,0,0.00
2013-6-28,84,76,69,-100,-100,-100,0,0,100,0.00,40.00,0,-999,0,0.00
2013-6-29,82,72,63,-100,-100,-100,0,0,100,0.00,40.00,0,-999,0,0.00
2013-6-30,78,69,61,-100,-100,-100,0,0,100,0.00,40.00,0,-999,0,0.00
2013-7-1,83,71,56,-100,-100,-100,0,0,100,0.00,40.00,0,-999,0,0.00
2013-7-2,83,71,60,-100,-100,-100,0,0,100,0.00,40.00,0,-999,0,0.00
2013-7-3,87,74,60,-100,-100,-100,0,0,100,0.00,40.00,0,-999,0,0.00
2013-7-4,87,76,65,-100,-100,-100,0,0,100,0.00,40.00,0,-999,0,0.00
2013-7-5,87,77,69,-100,-100,-100,0,0,100,0.00,40.00,0,-999,0,0.00
2013-7-6,87,77,71,-100,-100,-100,0,0,100,0.00,40.00,0,-999,0,0.00
2013-7-7,94,84,73,-100,-100,-100,0,0,100,0.00,40.00,0,-999,0,0.00
2013-7-8,87,79,73,-100,-100,-100,0,0,100,0.00,40.00,0,-999,0,0.00
2013-7-9,97,85,77,-100,-100,-100,0,0,100,0.00,40.00,0,-999,0,0.00
2013-7-10,87,77,69,-100,-100,-100,0,0,100,0.00,40.00,0,-999,0,0.00
2013-7-11,87,76,65,-100,-100,-100,0,0,100,0.00,40.00,0,-999,0,0.00
2013-7-12,90,79,71,-100,-100,-100,0,0,100,0.00,40.00,0,-999,0,0.00
2013-7-13,95,82,75,-100,-100,-100,0,0,100,0.00,40.00,0,-999,0,0.00
2013-7-14,87,78,73,-100,-100,-100,0,0,100,0.00,40.00,0,-999,0,0.00
2013-7-15,90,79,65,-100,-100,-100,0,0,100,0.00,40.00,0,-999,0,0.00
2013-7-16,94,82,71,-100,-100,-100,0,0,100,0.00,40.00,0,-999,0,0.00
2013-7-17,91,85,76,-100,-100,-100,0,0,100,0.00,40.00,0,-999,0,0.00
2013-7-18,92,85,74,-100,-100,-100,0,0,100,0.00,40.00,0,-999,0,0.00
2013-7-19,99,84,75,-100,-100,-100,0,0,100,0.00,40.00,0,-999,0,0.00
2013-7-20,91,77,65,-100,-100,-100,0,0,100,0.00,40.00,0,-999,0,0.00
2013-7-21,93,81,71,-100,-100,-100,0,0,100,0.00,40.00,0,-999,0,0.00
2013-7-22,97,83,71,-100,-100,-100,0,0,100,0.00,40.00,0,-999,0,0.00
2013-7-23,82,72,67,-100,-100,-100,0,0,100,0.00,40.00,0,-999,0,0.00
2013-7-24,86,74,59,-100,-100,-100,0,0,100,0.00,40.00,0,-999,0,0.00
2013-7-25,83,75,70,-100,-100,-100,0,0,100,0.00,40.00,0,-999,0,0.00
2013-7-26,77,71,65,-100,-100,-100,0,0,100,0.00,40.00,0,-999,0,0.00
2013-7-27,77,66,55,-100,-100,-100,0,0,100,0.00,40.00,0,-999,0,0.00
2013-7-28,80,66,51,-100,-100,-100,0,0,100,0.00,40.00,0,-999,0,0.00
2013-7-29,69,66,62,-100,-100,-100,0,0,100,0.00,40.00,0,-999,0,0.00
2013-7-30,77,71,66,-100,-100,-100,0,0,100,0.00,40.00,0,-999,0,0.00
2013-7-31,91,75,62,-100,-100,-100,0,0,100,0.00,40.00,0,-999,0,0.00
2013-8-1,83,73,64,-100,-100,-100,0,0,100,0.00,40.00,0,-999,0,0.00
2013-8-2,81,74,66,-100,-100,-100,0,0,100,0.00,40.00,0,-999,0,0.00
2013-8-3,80,71,62,-100,-100,-100,0,0,100,0.00,40.00,0,-999,0,0.00
2013-8-4,85,70,59,-100,-100,-100,0,0,100,0.00,40.00,0,-999,0,0.00
2013-8-5,85,76,69,-100,-100,-100,0,0,100,0.00,40.00,0,-999,0,0.00
2013-8-6,90,78,69,-100,-100,-100,0,0,100,0.00,40.00,0,-999,0,0.00
2013-8-7,81,74,65,-100,-100,-100,0,0,100,0.00,40.00,0,-999,0,0.00
2013-8-8,77,73,67,-100,-100,-100,0,0,100,0.00,40.00,0,-999,0,0.00
2013-8-9,84,73,65,-100,-100,-100,0,0,100,0.00,40.00,0,-999,0,0.00
2013-8-10,83,73,61,-100,-100,-100,0,0,100,0.00,40.00,0,-999,0,0.00
2013-8-11,88,76,66,-100,-100,-100,0,0,100,0.00,40.00,0,-999,0,0.00
2013-8-12,83,75,68,-100,-100,-100,0,0,100,0.00,40.00,0,-999,0,0.00
2013-8-13,79,72,65,-100,-100,-100,0,0,100,0.00,40.00,0,-999,0,0.00
2013-8-14,74,67,58,-100,-100,-100,0,0,100,0.00,40.00,0,-999,0,0.00
2013-8-15,69,65,62,-100,-100,-100,0,0,100,0.00,40.00,0,-999,0,0.00
2013-8-16,74,68,61,-100,-100,-100,0,0,100,0.00,40.00,0,-999,0,0.00
2013-8-17,83,72,63,-100,-100,-100,0,0,100,0.00,40.00,0,-999,0,0.00
2013-8-18,85,72,59,-100,-100,-100,0,0,100,0.00,40.00,0,-999,0,0.00
2013-8-19,87,76,66,-100,-100,-100,0,0,100,0.00,40.00,0,-999,0,0.00
2013-8-20,90,80,70,-100,-100,-100,0,0,100,0.00,40.00,0,-999,0,0.00
2013-8-21,91,80,73,-100,-100,-100,0,0,100,0.00,40.00,0,-999,0,0.00
2013-8-22,84,77,69,-100,-100,-100,0,0,100,0.00,40.00,0,-999,0,0.00
2013-8-23,88,80,73,-100,-100,-100,0,0,100,0.00,40.00,0,-999,0,0.00
2013-8-24,92,82,74,-100,-100,-100,0,0,100,0.00,40.00,0,-999,0,0.00
2013-8-25,94,84,76,-100,-100,-100,0,0,100,0.00,40.00,0,-999,0,0.00
2013-8-26,94,83,76,-100,-100,-100,0,0,100,0.00,40.00,0,-999,0,0.00
2013-8-27,94,81,76,-100,-100,-100,0,0,100,0.00,40.00,0,-999,0,0.00
2013-8-28,94,89,82,-100,-100,-100,0,0,100,0.00,40.00,0,-999,0,0.00
2013-8-29,96,83,67,-100,-100,-100,0,0,100,0.00,40.00,0,-999,0,0.00
2013-8-30,94,83,73,-100,-100,-100,0,0,100,0.00,40.00,0,-999,0,0.00
2013-8-31,98,82,72,-100,-100,-100,0,0,100,0.00,40.00,0,-999,0,0.00
2013-9-1,84,77,68,-100,-100,-100,0,0,100,0.00,40.00,0,-999,0,0.00
2013-9-2,81,70,58,-100,-100,-100,0,0,100,0.00,40.00,0,-999,0,0.00
2013-9-3,86,71,55,-100,-100,-100,0,0,100,0.00,40.00,0,-999,0,0.00
2013-9-4,87,76,68,-100,-100,-100,0,0,100,0.00,40.00,0,-999,0,0.00
2013-9-5,87,78,71,-100,-100,-100,0,0,100,0.00,40.00,0,-999,0,0.00
2013-9-6,93,80,71,-100,-100,-100,0,0,100,0.00,40.00,0,-999,0,0.00
2013-9-7,86,78,73,-100,-100,-100,0,0,100,0.00,40.00,0,-999,0,0.00
2013-9-8,92,80,69,-100,-100,-100,0,0,100,0.00,40.00,0,-999,0,0.00
2013-9-9,98,86,75,-100,-100,-100,0,0,100,0.00,40.00,0,-999,0,0.00
2013-9-10,92,80,69,-100,-100,-100,0,0,100,0.00,40.00,0,-999,0,0.00
2013-9-11,86,77,71,-100,-100,-100,0,0,100,0.00,40.00,0,-999,0,0.00
2013-9-12,84,72,62,-100,-100,-100,0,0,100,0.00,40.00,0,-999,0,0.00
2013-9-13,76,66,54,-100,-100,-100,0,0,100,0.00,40.00,0,-999,0,0.00
2013-9-14,77,70,60,-100,-100,-100,0,0,100,0.00,40.00,0,-999,0,0.00
2013-9-15,75,67,62,-100,-100,-100,0,0,100,0.00,40.00,0,-999,0,0.00
2013-9-16,70,64,58,-100,-100,-100,0,0,100,0.00,40.00,0,-999,0,0.00
2013-9-17,73,65,58,-100,-100,-100,0,0,100,0.00,40.00,0,-999,0,0.00
2013-9-18,81,72,70,-100,-100,-100,0,0,100,0.00,40.00,0,-999,0,0.00
2013-9-19,80,73,58,-100,-100,-100,0,0,100,0.00,40.00,0,-999,0,0.00
2013-9-20,71,61,51,-100,-100,-100,0,0,100,0.00,40.00,0,-999,0,0.00
2013-9-21,78,62,45,-100,-100,-100,0,0,100,0.00,40.00,0,-999,0,0.00
2013-9-22,87,70,61,-100,-100,-100,0,0,100,0.00,40.00,0,-999,0,0.00
2013-9-23,80,69,58,-100,-100,-100,0,0,100,0.00,40.00,0,-999,0,0.00
2013-9-24,73,67,59,-100,-100,-100,0,0,100,0.00,40.00,0,-999,0,0.00
2013-9-25,80,67,51,-100,-100,-100,0,0,100,0.00,40.00,0,-999,0,0.00
2013-9-26,89,75,64,-100,-100,-100,0,0,100,0.00,40.00,0,-999,0,0.00
2013-9-27,90,79,71,-100,-100,-100,0,0,100,0.00,40.00,0,-999,0,0.00
2013-9-28,80,66,54,-100,-100,-100,0,0,100,0.00,40.00,0,-999,0,0.00
2013-9-29,85,66,51,-100,-100,-100,0,0,100,0.00,40.00,0,-999,0,0.00
2013-9-30,83,68,54,-100,-100,-100,0,0,100,0.00,40.00,0,-999,0,0.00
2013-10-1,80,74,67,-100,-100,-100,0,0,100,0.00,40.00,0,-999,0,0.00
2013-10-2,86,73,58,-100,-100,-100,0,0,100,0.00,40.00,0,-999,0,0.00
2013-10-3,79,68,61,-100,-100,-100,0,0,100,0.00,40.00,0,-999,0,0.00
2013-10-4,80,70,62,-100,-100,-100,0,0,100,0.00,40.00,0,-999,0,0.00
2013-10-5,52,47,43,-100,-100,-100,0,0,100,0.00,40.00,0,-999,0,0.00
2013-10-6,56,48,43,-100,-100,-100,0,0,100,0.00,40.00,0,-999,0,0.00
2013-10-7,77,59,43,-100,-100,-100,0,0,100,0.00,40.00,0,-999,0,0.00
2013-10-8,78,66,54,-100,-100,-100,0,0,100,0.00,40.00,0,-999,0,0.00
2013-10-9,80,67,56,-100,-100,-100,0,0,100,0.00,40.00,0,-999,0,0.00
2013-10-10,81,70,60,-100,-100,-100,0,0,100,0.00,40.00,0,-999,0,0.00
2013-10-11,80,68,56,-100,-100,-100,0,0,100,0.00,40.00,0,-999,0,0.00
2013-10-12,68,57,46,-100,-100,-100,0,0,100,0.00,40.00,0,-999,0,0.00
2013-10-13,70,54,39,-100,-100,-100,0,0,100,0.00,40.00,0,-999,0,0.00
2013-10-14,60,55,48,-100,-100,-100,0,0,100,0.00,40.00,0,-999,0,0.00
2013-10-15,60,49,46,-100,-100,-100,0,0,100,0.00,40.00,0,-999,0,0.00
2013-10-16,59,50,45,-100,-100,-100,0,0,100,0.00,40.00,0,-999,0,0.00
2013-10-17,60,46,36,-100,-100,-100,0,0,100,0.00,40.00,0,-999,0,0.00
2013-10-18,55,44,35,-100,-100,-100,0,0,100,0.00,40.00,0,-999,0,0.00
2013-10-19,65,50,36,-100,-100,-100,0,0,100,0.00,40.00,0,-999,0,0.00
2013-10-20,65,53,43,-100,-100,-100,0,0,100,0.00,40.00,0,-999,0,0.00
2013-10-21,58,44,32,-100,-100,-100,0,0,100,0.00,40.00,0,-999,0,0.00
2013-10-22,49,46,42,-100,-100,-100,0,0,100,0.00,40.00,0,-999,0,0.00
2013-10-23,52,41,32,-100,-100,-100,0,0,100,0.00,40.00,0,-999,0,0.00
2013-10-24,51,41,32,-100,-100,-100,0,0,100,0.00,40.00,0,-999,0,0.00
2013-10-25,62,52,35,-100,-100,-100,0,0,100,0.00,40.00,0,-999,0,0.00
2013-10-26,52,47,42,-100,-100,-100,0,0,100,0.00,40.00,0,-999,0,0.00
2013-10-27,73,49,34,-100,-100,-100,0,0,100,0.00,40.00,0,-999,0,0.00
2013-10-28,54,47,40,-100,-100,-100,0,0,100,0.00,40.00,0,-999,0,0.00
2013-10-29,53,47,43,-100,-100,-100,0,0,100,0.00,40.00,0,-999,0,0.00
2013-10-30,54,47,44,-100,-100,-100,0,0,100,0.00,40.00,0,-999,0,0.00
2013-10-31,62,48,36,-100,-100,-100,0,0,100,0.00,40.00,0,-999,0,0.00
2013-11-1,58,49,41,-100,-100,-100,0,0,100,0.00,40.00,0,-999,0,0.00
2013-11-2,62,47,36,-100,-100,-100,0,0,100,0.00,40.00,0,-999,0,0.00
2013-11-3,58,50,43,-100,-100,-100,0,0,100,0.00,40.00,0,-999,0,0.00
2013-11-4,58,52,40,-100,-100,-100,0,0,100,0.00,40.00,0,-999,0,0.00
2013-11-5,43,39,36,-100,-100,-100,0,0,100,0.00,40.00,0,-999,0,0.00
2013-11-6,43,39,35,-100,-100,-100,0,0,100,0.00,40.00,0,-999,0,0.00
2013-11-7,50,39,34,-100,-100,-100,0,0,100,0.00,40.00,0,-999,0,0.00
2013-11-8,62,49,40,-100,-100,-100,0,0,100,0.00,40.00,0,-999,0,0.00
2013-11-9,62,48,36,-100,-100,-100,0,0,100,0.00,40.00,0,-999,0,0.00
2013-11-10,54,46,34,-100,-100,-100,0,0,100,0.00,40.00,0,-999,0,0.00
2013-11-11,45,34,21,-100,-100,-100,0,0,100,0.00,40.00,0,-999,0,0.00
2013-11-12,37,25,12,-100,-100,-100,0,0,100,0.00,40.00,0,-999,0,0.00
2013-11-13,62,40,27,-100,-100,-100,0,0,100,0.00,40.00,0,-999,0,0.00
2013-11-14,58,46,38,-100,-100,-100,0,0,100,0.00,40.00,0,-999,0,0.00
2013-11-15,57,44,30,-100,-100,-100,0,0,100,0.00,40.00,0,-999,0,0.00
2013-11-16,64,52,44,-100,-100,-100,0,0,100,0.00,40.00,0,-999,0,0.00
2013-11-17,55,46,38,-100,-100,-100,0,0,100,0.00,40.00,0,-999,0,0.00
2013-11-18,57,41,29,-100,-100,-100,0,0,100,0.00,40.00,0,-999,0,0.00
2013-11-19,65,49,38,-100,-100,-100,0,0,100,0.00,40.00,0,-999,0,0.00
2013-11-20,65,51,40,-100,-100,-100,0,0,100,0.00,40.00,0,-999,0,0.00
2013-11-21,38,30,22,-100,-100,-100,0,0,100,0.00,40.00,0,-999,0,0.00
2013-11-22,36,24,16,-100,-100,-100,0,0,100,0.00,40.00,0,-999,0,0.00
2013-11-23,25,21,16,-100,-100,-100,0,0,100,0.00,40.00,0,-999,0,0.00
2013-11-24,36,24,14,-100,-100,-100,0,0,100,0.00,40.00,0,-999,0,0.00
2013-11-25,49,35,26,-100,-100,-100,0,0,100,0.00,40.00,0,-999,0,0.00
2013-11-26,34,27,16,-100,-100,-100,0,0,100,0.00,40.00,0,-999,0,0.00
2013-11-27,35,24,11,-100,-100,-100,0,0,100,0.00,40.00,0,-999,0,0.00
2013-11-28,36,30,24,-100,-100,-100,0,0,100,0.00,40.00,0,-999,0,0.00
2013-11-29,48,33,20,-100,-100,-100,0,0,100,0.00,40.00,0,-999,0,0.00
2013-11-30,60,40,27,-100,-100,-100,0,0,100,0.00,40.00,0,-999,0,0.00
2013-12-1,47,37,26,-100,-100,-100,0,0,100,0.00,40.00,0,-999,0,0.00
2013-12-2,62,46,34,-100,-100,-100,0,0,100,0.00,40.00,0,-999,0,0.00
2013-12-3,45,39,34,-100,-100,-100,0,0,100,0.00,40.00,0,-999,0,0.00
2013-12-4,36,23,18,-100,-100,-100,0,0,100,0.00,40.00,0,-999,0,0.00
2013-12-5,18,13,9,-100,-100,-100,0,0,100,0.00,40.00,0,-999,0,0.00
2013-12-6,14,6,1,-100,-100,-100,0,0,100,0.00,40.00,0,-999,0,0.00
2013-12-7,13,8,1,-100,-100,-100,0,0,100,0.00,40.00,0,-999,0,0.00
2013-12-8,21,16,10,-100,-100,-100,0,0,100,0.00,40.00,0,-999,0,0.00
2013-12-9,19,8,1,-100,-100,-100,0,0,100,0.00,40.00,0,-999,0,0.00
2013-12-10,30,25,16,-100,-100,-100,0,0,100,0.00,40.00,0,-999,0,0.00
2013-12-11,30,13,4,-100,-100,-100,0,0,100,0.00,40.00,0,-999,0,0.00
2013-12-12,34,24,11,-100,-100,-100,0,0,100,0.00,40.00,0,-999,0,0.00
2013-12-13,35,25,14,-100,-100,-100,0,0,100,0.00,40.00,0,-999,0,0.00
2013-12-14,25,21,16,-100,-100,-100,0,0,100,0.00,40.00,0,-999,0,0.00
2013-12-15,30,23,17,-100,-100,-100,0,0,100,0.00,40.00,0,-999,0,0.00
2013-12-16,50,32,16,-100,-100,-100,0,0,100,0.00,40.00,0,-999,0,0.00
2013-12-17,44,35,28,-100,-100,-100,0,0,100,0.00,40.00,0,-999,0,0.00
2013-12-18,54,41,31,-100,-100,-100,0,0,100,0.00,40.00,0,-999,0,0.00
2013-12-19,36,29,18,-100,-100,-100,0,0,100,0.00,40.00,0,-999,0,0.00
2013-12-20,21,17,13,-100,-100,-100,0,0,100,0.00,40.00,0,-999,0,0.00
2013-12-21,26,22,19,-100,-100,-100,0,0,100,0.00,40.00,0,-999,0,0.00
2013-12-22,25,18,10,-100,-100,-100,0,0,100,0.00,40.00,0,-999,0,0.00
2013-12-23,16,9,3,-100,-100,-100,0,0,100,0.00,40.00,0,-999,0,0.00
2013-12-24,27,17,6,-100,-100,-100,0,0,100,0.00,40.00,0,-999,0,0.00
2013-12-25,42,31,23,-100,-100,-100,0,0,100,0.00,40.00,0,-999,0,0.00
2013-12-26,52,35,25,-100,-100,-100,0,0,100,0.00,40.00,0,-999,0,0.00
2013-12-27,65,42,23,-100,-100,-100,0,0,100,0.00,40.00,0,-999,0,0.00
2013-12-28,64,44,19,-100,-100,-100,0,0,100,0.00,40.00,0,-999,0,0.00
2013-12-29,18,11,6,-100,-100,-100,0,0,100,0.00,40.00,0,-999,0,0.00
2013-12-30,39,21,9,-100,-100,-100,0,0,100,0.00,40.00,0,-999,0,0.00
2013-12-31,34,18,12,-100,-100,-100,0,0,100,0.00,40.00,0,-999,0,0.00
2014-1-1,14,10,7,-100,-100,-100,0,0,100,0.00,40.00,0,-999,0,0.00
2014-1-2,11,7,1,-100,-100,-100,0,0,100,0.00,40.00,0,-999,0,0.00